Time;durP1;ratioP1;P1;durP2;ratioP2;P2;SDS_P1;SDS_P2;PMS_P1;PMS_P2;Temp;Humidity;BMP_temperature;BMP_pressure;BME280_temperature;BME280_humidity;BME280_pressure;Samples;Min_cycle;Max_cycle;Signal;HPM_P1;HPM_P2
2022/03/09 00:02:12;;;;;;;19.95;10.63;;;;;;;;;;5000767;28;93242;-76
2022/03/09 00:04:39;;;;;;;16.17;10.52;;;;;;;;;;4992064;28;92579;-75
2022/03/09 00:07:05;;;;;;;16.48;9.95;;;;;;;;;;4994672;28;94526;-73
2022/03/09 00:09:31;;;;;;;18.83;10.70;;;;;;;;;;4998759;28;93200;-74
2022/03/09 00:11:58;;;;;;;17.00;10.23;;;;;;;;;;5006194;28;92511;-74
2022/03/09 00:14:25;;;;;;;17.23;11.63;;;;;;;;;;5007171;28;95786;-75
2022/03/09 00:16:51;;;;;;;18.13;10.30;;;;;;;;;;4993041;28;92428;-72
2022/03/09 00:19:18;;;;;;;19.02;10.48;;;;;;;;;;5004219;28;92523;-71
2022/03/09 00:21:44;;;;;;;21.48;9.25;;;;;;;;;;5004094;28;93445;-74
2022/03/09 00:24:11;;;;;;;16.08;9.60;;;;;;;;;;4993176;28;92373;-74
2022/03/09 00:26:37;;;;;;;18.23;9.68;;;;;;;;;;4993174;28;93366;-75
2022/03/09 00:29:04;;;;;;;25.90;9.80;;;;;;;;;;4992538;28;93498;-75
2022/03/09 00:31:30;;;;;;;13.25;9.02;;;;;;;;;;4999566;28;93286;-75
2022/03/09 00:33:56;;;;;;;16.50;10.15;;;;;;;;;;5000650;28;93495;-73
2022/03/09 00:36:23;;;;;;;18.40;9.88;;;;;;;;;;4992376;28;92575;-71
2022/03/09 00:38:49;;;;;;;18.13;9.57;;;;;;;;;;4993207;28;94934;-75
2022/03/09 00:41:15;;;;;;;17.92;9.07;;;;;;;;;;5012253;28;93247;-74
2022/03/09 00:43:42;;;;;;;16.65;9.93;;;;;;;;;;4998529;28;92933;-74
2022/03/09 00:46:08;;;;;;;14.35;9.35;;;;;;;;;;4993562;28;92754;-74
2022/03/09 00:48:36;;;;;;;12.55;8.85;;;;;;;;;;4981380;28;95957;-75
2022/03/09 00:51:02;;;;;;;15.02;9.65;;;;;;;;;;4997449;28;92840;-75
2022/03/09 00:53:28;;;;;;;15.48;9.90;;;;;;;;;;5010226;28;93204;-73
2022/03/09 00:55:55;;;;;;;16.13;9.48;;;;;;;;;;5015404;28;93385;-74
2022/03/09 00:58:21;;;;;;;15.45;10.60;;;;;;;;;;4993905;28;92412;-74
2022/03/09 01:00:48;;;;;;;17.10;9.93;;;;;;;;;;4993110;28;93307;-72
2022/03/09 01:03:15;;;;;;;16.80;9.60;;;;;;;;;;4999961;28;95452;-74
2022/03/09 01:05:41;;;;;;;16.27;10.00;;;;;;;;;;4991513;28;95538;-75
2022/03/09 01:08:08;;;;;;;19.20;10.07;;;;;;;;;;4992320;28;93590;-73
2022/03/09 01:10:34;;;;;;;22.25;9.77;;;;;;;;;;4996016;28;92819;-74
2022/03/09 01:13:01;;;;;;;15.23;9.70;;;;;;;;;;4999280;28;93217;-74
2022/03/09 01:15:27;;;;;;;15.23;9.88;;;;;;;;;;5009580;28;93230;-73
2022/03/09 01:17:53;;;;;;;13.70;9.57;;;;;;;;;;5002112;28;92975;-72
2022/03/09 01:20:20;;;;;;;18.33;9.73;;;;;;;;;;5002738;28;92628;-75
2022/03/09 01:22:46;;;;;;;18.08;9.85;;;;;;;;;;4996390;28;92445;-73
2022/03/09 01:25:12;;;;;;;16.02;9.80;;;;;;;;;;5011393;28;92959;-74
2022/03/09 01:27:39;;;;;;;20.42;9.25;;;;;;;;;;4996839;28;96803;-74
2022/03/09 01:30:06;;;;;;;12.38;9.05;;;;;;;;;;5011762;28;92489;-74
2022/03/09 01:32:32;;;;;;;19.98;10.55;;;;;;;;;;4998463;28;94159;-75
2022/03/09 01:34:59;;;;;;;16.65;10.23;;;;;;;;;;5010383;28;93047;-73
2022/03/09 01:37:25;;;;;;;17.05;10.00;;;;;;;;;;5004805;28;92492;-73
2022/03/09 01:39:52;;;;;;;15.80;9.90;;;;;;;;;;4986711;28;93431;-74
2022/03/09 01:42:18;;;;;;;18.02;9.32;;;;;;;;;;5009962;28;92764;-74
2022/03/09 01:44:44;;;;;;;13.70;9.40;;;;;;;;;;5015650;28;93022;-74
2022/03/09 01:47:11;;;;;;;14.80;9.65;;;;;;;;;;5005398;28;93779;-74
2022/03/09 01:49:38;;;;;;;18.80;9.82;;;;;;;;;;5015629;28;92853;-75
2022/03/09 01:52:04;;;;;;;14.55;10.02;;;;;;;;;;5003486;28;95117;-74
2022/03/09 01:54:31;;;;;;;17.08;10.07;;;;;;;;;;4996252;28;93244;-74
2022/03/09 01:56:58;;;;;;;14.90;10.32;;;;;;;;;;5006589;28;92464;-74
2022/03/09 01:59:25;;;;;;;15.45;9.35;;;;;;;;;;5018208;28;94059;-75
2022/03/09 02:01:51;;;;;;;16.83;9.80;;;;;;;;;;5005245;28;92432;-74
2022/03/09 02:04:18;;;;;;;22.60;11.25;;;;;;;;;;5003176;28;93301;-74
2022/03/09 02:06:45;;;;;;;18.38;9.75;;;;;;;;;;5001950;28;93414;-75
2022/03/09 02:11:58;;;;;;;15.63;11.00;;;;;;;;;;5002696;28;92843;-74
2022/03/09 02:14:36;;;;;;;20.08;12.00;;;;;;;;;;5014419;28;93057;-75
2022/03/09 02:17:12;;;;;;;14.98;10.07;;;;;;;;;;4994923;28;95170;-74
2022/03/09 02:19:38;;;;;;;23.25;10.80;;;;;;;;;;5005815;28;96819;-73
2022/03/09 02:22:06;;;;;;;17.02;10.95;;;;;;;;;;5008043;28;93204;-73
2022/03/09 02:24:33;;;;;;;20.08;11.02;;;;;;;;;;5014356;28;93182;-75
2022/03/09 02:27:02;;;;;;;20.05;11.15;;;;;;;;;;5000116;28;93475;-74
2022/03/09 02:29:29;;;;;;;16.05;11.02;;;;;;;;;;5007306;28;92457;-74
2022/03/09 02:31:55;;;;;;;15.45;10.57;;;;;;;;;;4983631;28;93382;-74
2022/03/09 02:34:21;;;;;;;15.02;10.68;;;;;;;;;;5012486;28;92693;-75
2022/03/09 02:36:48;;;;;;;16.05;10.18;;;;;;;;;;5003898;28;92635;-75
2022/03/09 02:39:14;;;;;;;20.35;11.25;;;;;;;;;;4994522;28;93245;-74
2022/03/09 02:41:40;;;;;;;19.77;10.30;;;;;;;;;;4994103;28;95863;-72
2022/03/09 02:44:07;;;;;;;19.83;10.98;;;;;;;;;;5003497;28;92490;-74
2022/03/09 02:46:33;;;;;;;22.75;11.05;;;;;;;;;;4994316;28;93530;-74
2022/03/09 02:49:00;;;;;;;17.95;11.18;;;;;;;;;;4990683;28;93455;-74
2022/03/09 02:51:26;;;;;;;23.85;11.82;;;;;;;;;;4986284;28;93071;-73
2022/03/09 02:53:52;;;;;;;16.73;10.95;;;;;;;;;;4997263;28;94463;-69
2022/03/09 02:56:19;;;;;;;14.75;10.57;;;;;;;;;;5003104;28;92527;-74
2022/03/09 02:58:45;;;;;;;19.30;11.15;;;;;;;;;;5003979;28;93186;-74
2022/03/09 03:01:13;;;;;;;18.83;10.90;;;;;;;;;;4997835;28;94441;-74
2022/03/09 03:03:42;;;;;;;16.02;10.10;;;;;;;;;;4994615;28;92390;-74
2022/03/09 03:06:12;;;;;;;15.80;10.77;;;;;;;;;;5000830;28;94780;-76
2022/03/09 03:08:39;;;;;;;16.17;10.93;;;;;;;;;;5013260;28;92474;-74
2022/03/09 03:11:08;;;;;;;18.38;10.93;;;;;;;;;;5012569;28;92802;-72
2022/03/09 03:13:35;;;;;;;21.67;10.70;;;;;;;;;;4993914;28;94303;-74
2022/03/09 03:16:01;;;;;;;17.50;11.05;;;;;;;;;;4993466;28;92430;-74
2022/03/09 03:18:28;;;;;;;21.77;11.02;;;;;;;;;;4993796;28;93140;-74
2022/03/09 03:20:55;;;;;;;16.90;10.73;;;;;;;;;;4993339;28;93395;-74
2022/03/09 03:23:22;;;;;;;16.67;11.10;;;;;;;;;;4995305;28;91698;-74
2022/03/09 03:25:49;;;;;;;16.73;10.45;;;;;;;;;;5013079;28;92356;-74
2022/03/09 03:28:15;;;;;;;16.95;10.93;;;;;;;;;;4993521;28;92562;-74
2022/03/09 03:30:42;;;;;;;15.13;10.35;;;;;;;;;;4991736;28;94775;-74
2022/03/09 03:33:09;;;;;;;20.33;11.10;;;;;;;;;;4993329;28;94408;-74
2022/03/09 03:35:35;;;;;;;19.05;10.70;;;;;;;;;;4992700;28;92389;-74
2022/03/09 03:38:01;;;;;;;18.25;11.20;;;;;;;;;;4993039;28;94181;-74
2022/03/09 03:40:28;;;;;;;16.63;11.15;;;;;;;;;;4993643;28;94450;-74
2022/03/09 03:42:54;;;;;;;18.73;11.05;;;;;;;;;;4992857;28;92607;-73
2022/03/09 03:45:20;;;;;;;15.10;10.48;;;;;;;;;;4993577;28;92953;-74
2022/03/09 03:47:47;;;;;;;16.38;10.13;;;;;;;;;;4996563;28;92559;-74
2022/03/09 03:50:13;;;;;;;21.70;11.38;;;;;;;;;;4992271;28;92706;-74
2022/03/09 03:52:40;;;;;;;17.50;10.68;;;;;;;;;;4993278;28;93624;-74
2022/03/09 03:55:06;;;;;;;18.00;11.00;;;;;;;;;;4991393;28;94830;-72
2022/03/09 03:57:32;;;;;;;23.77;10.93;;;;;;;;;;4993258;28;96700;-74
2022/03/09 03:59:59;;;;;;;16.35;10.27;;;;;;;;;;4994147;28;93252;-74
2022/03/09 04:02:25;;;;;;;21.55;11.32;;;;;;;;;;5012998;28;92655;-74
2022/03/09 04:04:51;;;;;;;16.42;10.75;;;;;;;;;;5011358;28;94075;-74
2022/03/09 04:07:19;;;;;;;19.08;10.10;;;;;;;;;;5012756;28;94266;-74
2022/03/09 04:09:45;;;;;;;17.17;10.93;;;;;;;;;;5015826;28;92375;-74
2022/03/09 04:12:12;;;;;;;18.48;10.70;;;;;;;;;;5012762;28;92374;-74
2022/03/09 04:14:38;;;;;;;16.92;10.65;;;;;;;;;;5013076;28;93191;-74
2022/03/09 04:17:04;;;;;;;19.42;10.70;;;;;;;;;;4994560;28;94248;-74
2022/03/09 04:19:31;;;;;;;19.17;11.35;;;;;;;;;;4990488;28;95931;-74
2022/03/09 04:21:57;;;;;;;16.38;10.85;;;;;;;;;;4992001;28;92402;-74
2022/03/09 04:24:23;;;;;;;19.10;11.48;;;;;;;;;;4992890;28;93141;-75
2022/03/09 04:26:50;;;;;;;23.42;11.73;;;;;;;;;;4992327;28;93461;-73
2022/03/09 04:29:16;;;;;;;19.25;11.48;;;;;;;;;;4992539;28;92472;-74
2022/03/09 04:31:42;;;;;;;18.23;11.32;;;;;;;;;;4994902;28;94094;-74
2022/03/09 04:34:09;;;;;;;14.25;10.27;;;;;;;;;;4991932;28;92777;-74
2022/03/09 04:36:36;;;;;;;15.13;10.27;;;;;;;;;;4993277;28;94212;-74
2022/03/09 04:39:03;;;;;;;20.75;11.45;;;;;;;;;;4992178;28;94131;-74
2022/03/09 04:41:29;;;;;;;15.48;10.65;;;;;;;;;;4992260;28;92559;-74
2022/03/09 04:43:55;;;;;;;20.13;12.07;;;;;;;;;;4990283;28;94812;-74
2022/03/09 04:46:22;;;;;;;21.08;10.77;;;;;;;;;;4991928;28;92943;-74
2022/03/09 04:48:51;;;;;;;20.08;11.93;;;;;;;;;;4990923;28;92825;-74
2022/03/09 04:51:17;;;;;;;17.45;11.18;;;;;;;;;;4987521;28;93018;-73
2022/03/09 04:53:43;;;;;;;18.83;11.40;;;;;;;;;;4994156;28;93521;-73
2022/03/09 04:56:13;;;;;;;18.05;11.52;;;;;;;;;;4991141;28;93050;-74
2022/03/09 04:58:39;;;;;;;18.95;11.73;;;;;;;;;;4992251;28;94230;-73
2022/03/09 05:01:06;;;;;;;22.40;12.60;;;;;;;;;;4993678;28;92179;-73
2022/03/09 05:03:34;;;;;;;19.27;10.55;;;;;;;;;;4991723;28;92459;-78
2022/03/09 05:06:05;;;;;;;20.13;11.38;;;;;;;;;;4990767;28;93404;-72
2022/03/09 05:08:33;;;;;;;19.90;11.45;;;;;;;;;;4990369;28;94890;-74
2022/03/09 05:10:59;;;;;;;21.90;11.77;;;;;;;;;;4991749;28;96523;-73
2022/03/09 05:13:25;;;;;;;19.38;11.20;;;;;;;;;;4998892;28;94263;-74
2022/03/09 05:15:52;;;;;;;16.38;11.13;;;;;;;;;;5001270;28;92522;-74
2022/03/09 05:18:18;;;;;;;19.67;11.57;;;;;;;;;;4998016;28;94381;-75
2022/03/09 05:20:45;;;;;;;23.80;12.13;;;;;;;;;;4997831;28;92394;-76
2022/03/09 05:23:12;;;;;;;22.40;11.88;;;;;;;;;;4998296;28;93153;-74
2022/03/09 05:25:38;;;;;;;24.35;11.07;;;;;;;;;;4998914;28;93802;-74
2022/03/09 05:28:04;;;;;;;18.50;11.90;;;;;;;;;;4997546;28;92829;-74
2022/03/09 05:30:31;;;;;;;18.05;11.77;;;;;;;;;;4998143;28;92957;-74
2022/03/09 05:32:57;;;;;;;20.88;11.60;;;;;;;;;;4995252;28;95786;-74
2022/03/09 05:35:24;;;;;;;17.52;11.48;;;;;;;;;;5001353;28;92420;-74
2022/03/09 05:37:50;;;;;;;27.33;12.40;;;;;;;;;;4997809;28;93518;-74
2022/03/09 05:40:16;;;;;;;25.88;12.15;;;;;;;;;;4997975;28;92592;-74
2022/03/09 05:42:45;;;;;;;23.60;13.75;;;;;;;;;;4997367;28;92768;-74
2022/03/09 05:45:17;;;;;;;21.63;12.32;;;;;;;;;;4998703;28;94444;-75
2022/03/09 05:47:50;;;;;;;18.25;11.52;;;;;;;;;;4997219;28;92747;-73
2022/03/09 05:50:18;;;;;;;17.00;10.40;;;;;;;;;;4998557;28;93134;-75
2022/03/09 05:52:45;;;;;;;19.73;11.57;;;;;;;;;;4996599;28;93205;-74
2022/03/09 05:55:11;;;;;;;15.88;10.43;;;;;;;;;;4997030;28;92781;-72
2022/03/09 05:57:37;;;;;;;19.98;11.80;;;;;;;;;;4983150;28;95833;-74
2022/03/09 06:00:06;;;;;;;19.67;11.32;;;;;;;;;;4997274;28;92690;-74
2022/03/09 06:02:32;;;;;;;21.20;11.20;;;;;;;;;;4982942;28;93004;-71
2022/03/09 06:04:59;;;;;;;19.42;12.10;;;;;;;;;;4996002;28;93269;-74
2022/03/09 06:07:25;;;;;;;18.33;11.13;;;;;;;;;;4998712;28;92429;-75
2022/03/09 06:09:51;;;;;;;22.63;12.07;;;;;;;;;;4997320;28;93463;-74
2022/03/09 06:12:18;;;;;;;20.02;11.35;;;;;;;;;;4990337;28;94561;-74
2022/03/09 06:14:44;;;;;;;19.35;10.88;;;;;;;;;;4998013;28;91773;-74
2022/03/09 06:17:10;;;;;;;23.05;12.05;;;;;;;;;;5000836;28;92469;-74
2022/03/09 06:19:37;;;;;;;20.65;10.55;;;;;;;;;;5001080;28;93511;-73
2022/03/09 06:22:03;;;;;;;18.13;11.65;;;;;;;;;;4996226;28;95679;-74
2022/03/09 06:24:29;;;;;;;18.77;11.38;;;;;;;;;;4995203;28;93315;-74
2022/03/09 06:26:56;;;;;;;28.02;11.60;;;;;;;;;;4993365;28;92622;-75
2022/03/09 06:29:22;;;;;;;19.38;11.52;;;;;;;;;;5002620;28;93019;-74
2022/03/09 06:31:48;;;;;;;25.65;11.35;;;;;;;;;;4993252;28;93258;-74
2022/03/09 06:34:15;;;;;;;20.08;10.98;;;;;;;;;;4995549;28;93648;-75
2022/03/09 06:36:44;;;;;;;25.55;11.77;;;;;;;;;;4993924;28;93009;-74
2022/03/09 06:39:12;;;;;;;20.77;11.80;;;;;;;;;;5011630;28;93781;-73
2022/03/09 06:41:40;;;;;;;20.48;11.48;;;;;;;;;;5011117;28;92734;-74
2022/03/09 06:44:06;;;;;;;21.77;10.45;;;;;;;;;;4993270;28;94176;-74
2022/03/09 06:46:32;;;;;;;16.27;10.25;;;;;;;;;;4993447;28;94897;-74
2022/03/09 06:48:59;;;;;;;19.13;10.60;;;;;;;;;;4993404;28;95672;-75
2022/03/09 06:51:25;;;;;;;34.83;11.50;;;;;;;;;;4991710;28;94472;-69
2022/03/09 06:53:51;;;;;;;36.83;11.45;;;;;;;;;;4986720;28;92608;-75
2022/03/09 06:56:20;;;;;;;24.33;11.20;;;;;;;;;;4993969;28;93712;-75
2022/03/09 06:58:47;;;;;;;21.42;10.43;;;;;;;;;;5000636;28;94295;-71
2022/03/09 07:01:13;;;;;;;21.80;10.20;;;;;;;;;;4996509;28;93520;-74
2022/03/09 07:03:40;;;;;;;24.15;10.88;;;;;;;;;;4997053;28;93388;-74
2022/03/09 07:06:10;;;;;;;21.05;9.65;;;;;;;;;;4993952;28;92624;-75
2022/03/09 07:08:38;;;;;;;19.73;10.55;;;;;;;;;;4994298;28;93374;-77
2022/03/09 07:11:04;;;;;;;14.65;9.38;;;;;;;;;;4991086;28;96501;-76
2022/03/09 07:13:30;;;;;;;32.47;10.18;;;;;;;;;;4993776;28;92819;-75
2022/03/09 07:15:56;;;;;;;26.98;9.85;;;;;;;;;;4992354;28;93217;-76
2022/03/09 07:18:23;;;;;;;19.65;10.55;;;;;;;;;;5007489;28;94421;-76
2022/03/09 07:20:52;;;;;;;14.70;9.20;;;;;;;;;;4993479;28;92658;-76
2022/03/09 07:23:18;;;;;;;28.08;10.27;;;;;;;;;;4996963;28;93283;-76
2022/03/09 07:25:45;;;;;;;23.80;9.20;;;;;;;;;;4993540;28;92428;-76
2022/03/09 07:28:12;;;;;;;19.52;10.05;;;;;;;;;;4993144;28;93200;-76
2022/03/09 07:30:38;;;;;;;17.42;9.45;;;;;;;;;;4993326;28;93498;-75
2022/03/09 07:33:04;;;;;;;21.17;10.52;;;;;;;;;;4992991;28;92477;-74
2022/03/09 07:35:30;;;;;;;34.45;10.07;;;;;;;;;;4989667;28;94787;-73
2022/03/09 07:37:57;;;;;;;24.38;10.02;;;;;;;;;;4993733;28;94441;-76
2022/03/09 07:40:23;;;;;;;18.35;9.50;;;;;;;;;;4994613;28;92535;-76
2022/03/09 07:42:49;;;;;;;16.30;8.85;;;;;;;;;;4994415;28;92947;-77
2022/03/09 07:45:21;;;;;;;23.75;9.70;;;;;;;;;;5002149;28;94113;-75
2022/03/09 07:47:47;;;;;;;19.05;9.80;;;;;;;;;;4995024;28;92816;-75
2022/03/09 07:50:13;;;;;;;17.20;9.38;;;;;;;;;;5000938;28;93271;-75
2022/03/09 07:52:40;;;;;;;23.70;9.70;;;;;;;;;;4988825;28;92623;-72
2022/03/09 07:55:06;;;;;;;17.48;9.68;;;;;;;;;;4986764;28;92523;-76
2022/03/09 07:57:33;;;;;;;16.65;9.73;;;;;;;;;;5000356;28;93441;-75
2022/03/09 08:00:00;;;;;;;19.83;9.07;;;;;;;;;;4991933;28;94866;-76
2022/03/09 08:02:26;;;;;;;18.70;9.32;;;;;;;;;;4992195;28;96657;-74
2022/03/09 08:04:52;;;;;;;24.02;9.68;;;;;;;;;;4988638;28;93225;-76
2022/03/09 08:07:19;;;;;;;19.88;9.43;;;;;;;;;;5001786;28;92504;-76
2022/03/09 08:09:45;;;;;;;19.48;9.57;;;;;;;;;;5003172;28;93977;-75
2022/03/09 08:12:11;;;;;;;15.25;9.32;;;;;;;;;;5011234;28;92469;-77
2022/03/09 08:14:38;;;;;;;24.95;9.68;;;;;;;;;;4998086;28;93697;-78
2022/03/09 08:17:04;;;;;;;18.23;9.18;;;;;;;;;;4992978;28;92475;-78
2022/03/09 08:19:30;;;;;;;16.98;9.30;;;;;;;;;;4993193;28;92446;-78
2022/03/09 08:21:57;;;;;;;20.10;9.90;;;;;;;;;;4992885;28;92415;-76
2022/03/09 08:24:23;;;;;;;18.55;9.40;;;;;;;;;;4998137;28;96657;-78
2022/03/09 08:26:49;;;;;;;21.17;10.32;;;;;;;;;;4995953;28;92456;-78
2022/03/09 08:29:16;;;;;;;17.08;9.23;;;;;;;;;;4995504;28;95491;-78
2022/03/09 08:31:42;;;;;;;15.57;9.13;;;;;;;;;;4991837;28;92454;-76
2022/03/09 08:34:09;;;;;;;14.00;9.20;;;;;;;;;;4984660;28;95551;-77
2022/03/09 08:36:35;;;;;;;15.98;9.70;;;;;;;;;;4988502;28;93515;-78
2022/03/09 08:39:02;;;;;;;27.45;10.05;;;;;;;;;;4991271;28;92948;-75
2022/03/09 08:41:29;;;;;;;18.50;9.98;;;;;;;;;;4991593;28;92810;-76
2022/03/09 08:43:56;;;;;;;15.55;9.73;;;;;;;;;;4990957;28;93459;-76
2022/03/09 08:46:22;;;;;;;18.52;9.45;;;;;;;;;;4993959;28;92424;-77
2022/03/09 08:48:48;;;;;;;17.98;9.50;;;;;;;;;;4992697;28;95376;-77
2022/03/09 08:51:20;;;;;;;19.33;9.70;;;;;;;;;;5002424;28;93284;-77
2022/03/09 08:53:47;;;;;;;27.48;7.88;;;;;;;;;;4992695;28;93890;-77
2022/03/09 08:56:13;;;;;;;15.88;8.82;;;;;;;;;;4993686;28;93358;-79
2022/03/09 08:58:40;;;;;;;25.42;10.10;;;;;;;;;;4995459;28;92514;-78
2022/03/09 09:01:06;;;;;;;16.55;9.77;;;;;;;;;;4984912;28;94964;-78
2022/03/09 09:03:42;;;;;;;26.60;10.45;;;;;;;;;;5009130;28;94557;-77
2022/03/09 09:06:08;;;;;;;15.30;9.07;;;;;;;;;;5009005;28;91724;-77
2022/03/09 09:08:35;;;;;;;16.48;8.68;;;;;;;;;;4993120;28;93281;-77
2022/03/09 09:11:01;;;;;;;20.42;8.80;;;;;;;;;;4991540;28;93480;-75
2022/03/09 09:13:28;;;;;;;18.42;9.75;;;;;;;;;;4994504;28;95031;-77
2022/03/09 09:15:54;;;;;;;39.25;10.23;;;;;;;;;;4991228;28;93453;-77
2022/03/09 09:18:20;;;;;;;17.13;8.82;;;;;;;;;;4996861;28;92708;-77
2022/03/09 09:20:51;;;;;;;25.83;10.00;;;;;;;;;;5010241;28;93079;-77
2022/03/09 09:23:17;;;;;;;23.75;9.70;;;;;;;;;;4991844;28;94531;-77
2022/03/09 09:25:45;;;;;;;18.20;9.95;;;;;;;;;;4992821;28;92607;-78
2022/03/09 09:28:12;;;;;;;16.98;9.63;;;;;;;;;;4992174;28;93167;-76
2022/03/09 09:30:39;;;;;;;18.23;10.05;;;;;;;;;;5001715;28;92473;-77
2022/03/09 09:33:05;;;;;;;25.55;10.57;;;;;;;;;;5013329;28;92472;-77
2022/03/09 09:35:31;;;;;;;22.80;10.00;;;;;;;;;;5007104;28;93214;-76
2022/03/09 09:38:06;;;;;;;21.67;9.85;;;;;;;;;;5002815;28;94805;-72
2022/03/09 09:40:34;;;;;;;18.52;10.35;;;;;;;;;;4998011;28;95226;-76
2022/03/09 09:43:07;;;;;;;17.23;10.73;;;;;;;;;;4991637;28;94239;-75
2022/03/09 09:45:34;;;;;;;26.95;10.18;;;;;;;;;;4990577;28;92512;-75
2022/03/09 09:48:05;;;;;;;22.70;10.85;;;;;;;;;;4991080;28;92714;-76
2022/03/09 09:50:31;;;;;;;14.50;9.73;;;;;;;;;;5005187;28;93434;-74
2022/03/09 09:52:57;;;;;;;14.85;10.23;;;;;;;;;;5011374;28;92438;-72
2022/03/09 09:55:27;;;;;;;16.77;10.18;;;;;;;;;;4998924;28;93381;-76
2022/03/09 09:57:54;;;;;;;15.20;10.63;;;;;;;;;;4991318;28;93044;-70
2022/03/09 10:00:20;;;;;;;15.55;10.30;;;;;;;;;;4995743;28;94092;-75
2022/03/09 10:02:47;;;;;;;15.48;10.35;;;;;;;;;;5002701;28;96792;-77
2022/03/09 10:05:15;;;;;;;15.15;10.90;;;;;;;;;;4998852;28;92508;-73
2022/03/09 10:08:00;;;;;;;17.83;10.70;;;;;;;;;;5028803;27;93372;-74
2022/03/09 10:10:27;;;;;;;18.38;11.13;;;;;;;;;;5014901;28;93423;-74
2022/03/09 10:13:09;;;;;;;20.05;11.73;;;;;;;;;;5014080;28;92403;-74
2022/03/09 10:15:35;;;;;;;18.17;10.87;;;;;;;;;;4997622;28;93509;-73
2022/03/09 10:18:11;;;;;;;20.10;11.60;;;;;;;;;;5007992;28;94400;-77
2022/03/09 10:20:38;;;;;;;16.05;10.65;;;;;;;;;;4995377;28;93200;-76
2022/03/09 10:23:04;;;;;;;19.85;11.93;;;;;;;;;;4996410;28;93236;-77
2022/03/09 10:25:30;;;;;;;25.63;12.20;;;;;;;;;;4996666;28;92546;-75
2022/03/09 10:27:57;;;;;;;18.50;12.23;;;;;;;;;;4992614;28;94980;-75
2022/03/09 10:30:29;;;;;;;16.83;11.63;;;;;;;;;;4994859;28;92811;-75
2022/03/09 10:32:56;;;;;;;23.08;12.27;;;;;;;;;;4994188;28;92369;-75
2022/03/09 10:35:29;;;;;;;25.98;13.00;;;;;;;;;;4994499;28;94301;-75
2022/03/09 10:37:56;;;;;;;21.20;13.50;;;;;;;;;;5002460;28;93594;-75
2022/03/09 10:40:23;;;;;;;22.30;13.43;;;;;;;;;;5017217;28;92450;-74
2022/03/09 10:42:49;;;;;;;23.63;13.23;;;;;;;;;;5013999;28;94451;-75
2022/03/09 10:45:17;;;;;;;19.05;11.52;;;;;;;;;;5000574;28;92078;-75
2022/03/09 10:47:44;;;;;;;22.45;12.18;;;;;;;;;;4995106;28;92656;-75
2022/03/09 10:50:21;;;;;;;19.88;10.85;;;;;;;;;;4994760;28;93637;-75
2022/03/09 10:52:52;;;;;;;21.40;10.85;;;;;;;;;;4992233;28;95732;-75
2022/03/09 10:55:19;;;;;;;15.60;10.18;;;;;;;;;;4993654;28;96715;-75
2022/03/09 10:57:45;;;;;;;24.65;11.93;;;;;;;;;;5009683;28;94238;-76
2022/03/09 11:00:12;;;;;;;18.88;11.07;;;;;;;;;;5002961;28;92403;-74
2022/03/09 11:02:48;;;;;;;31.80;11.73;;;;;;;;;;4996782;28;94574;-75
2022/03/09 11:05:17;;;;;;;17.00;11.30;;;;;;;;;;4992728;28;92446;-75
2022/03/09 11:07:44;;;;;;;23.52;11.68;;;;;;;;;;4995210;28;94757;-75
2022/03/09 11:10:13;;;;;;;18.95;11.77;;;;;;;;;;5003697;28;92914;-75
2022/03/09 11:12:39;;;;;;;22.73;12.18;;;;;;;;;;5014133;28;92386;-75
2022/03/09 11:15:06;;;;;;;16.63;12.20;;;;;;;;;;4997789;28;93163;-74
2022/03/09 11:17:33;;;;;;;21.80;12.00;;;;;;;;;;4981670;28;96828;-75
2022/03/09 11:19:59;;;;;;;26.08;14.52;;;;;;;;;;4987613;28;92866;-76
2022/03/09 11:22:26;;;;;;;17.90;13.05;;;;;;;;;;4977302;28;93095;-78
2022/03/09 11:24:53;;;;;;;20.15;13.73;;;;;;;;;;4991344;28;93210;-74
2022/03/09 11:27:19;;;;;;;25.33;13.18;;;;;;;;;;5003085;28;94462;-72
2022/03/09 11:29:45;;;;;;;26.08;13.00;;;;;;;;;;4991518;28;93453;-74
2022/03/09 11:32:14;;;;;;;19.67;13.10;;;;;;;;;;5006201;28;92920;-74
2022/03/09 11:34:47;;;;;;;30.02;12.80;;;;;;;;;;5012654;28;93285;-71
2022/03/09 11:37:18;;;;;;;24.38;14.20;;;;;;;;;;5011542;28;93293;-73
2022/03/09 11:40:08;;;;;;;18.60;12.82;;;;;;;;;;4997725;28;92568;-72
2022/03/09 11:42:41;;;;;;;23.88;14.57;;;;;;;;;;5005834;28;94781;-72
2022/03/09 11:45:30;;;;;;;24.50;14.48;;;;;;;;;;5011165;28;93316;-72
2022/03/09 11:48:03;;;;;;;19.70;13.57;;;;;;;;;;4992397;28;93210;-73
2022/03/09 11:50:32;;;;;;;19.48;13.32;;;;;;;;;;4992643;28;92564;-72
2022/03/09 11:53:05;;;;;;;24.33;15.93;;;;;;;;;;5012890;28;93252;-73
2022/03/09 11:55:32;;;;;;;23.40;14.77;;;;;;;;;;5005115;28;93402;-73
2022/03/09 11:57:58;;;;;;;24.23;16.98;;;;;;;;;;4992756;28;93811;-72
2022/03/09 12:00:24;;;;;;;27.83;18.13;;;;;;;;;;4992534;28;92054;-74
2022/03/09 12:02:55;;;;;;;34.00;16.55;;;;;;;;;;4984867;28;92727;-75
2022/03/09 12:05:24;;;;;;;26.80;17.35;;;;;;;;;;4991722;28;93437;-74
2022/03/09 12:07:51;;;;;;;27.83;17.60;;;;;;;;;;4995096;28;95941;-73
2022/03/09 12:10:18;;;;;;;27.58;17.92;;;;;;;;;;4993405;28;93431;-77
2022/03/09 12:13:03;;;;;;;26.73;18.67;;;;;;;;;;4992777;28;92419;-77
2022/03/09 12:15:31;;;;;;;32.05;19.08;;;;;;;;;;4992910;28;92790;-74
2022/03/09 12:17:57;;;;;;;26.30;17.48;;;;;;;;;;4991857;28;93450;-74
2022/03/09 12:20:25;;;;;;;26.15;18.52;;;;;;;;;;5009593;28;92583;-74
2022/03/09 12:22:59;;;;;;;26.15;18.17;;;;;;;;;;5006057;28;93938;-75
2022/03/09 12:25:43;;;;;;;24.55;18.17;;;;;;;;;;4993389;28;92538;-74
2022/03/09 12:28:22;;;;;;;33.65;20.50;;;;;;;;;;4987316;28;92564;-74
2022/03/09 12:30:53;;;;;;;25.52;18.00;;;;;;;;;;5008049;28;93086;-75
2022/03/09 12:33:21;;;;;;;22.77;17.33;;;;;;;;;;5002890;28;94898;-74
2022/03/09 12:35:47;;;;;;;29.95;18.30;;;;;;;;;;4993634;28;96678;-74
2022/03/09 12:38:14;;;;;;;27.95;18.35;;;;;;;;;;4993682;28;93482;-76
2022/03/09 12:40:41;;;;;;;25.80;16.85;;;;;;;;;;5005882;28;92472;-74
2022/03/09 12:43:08;;;;;;;30.63;18.40;;;;;;;;;;5006496;28;93117;-74
2022/03/09 12:45:53;;;;;;;30.48;19.23;;;;;;;;;;5002543;28;94504;-75
2022/03/09 12:48:20;;;;;;;25.33;19.25;;;;;;;;;;4993656;28;92544;-75
2022/03/09 12:50:47;;;;;;;23.48;17.70;;;;;;;;;;4993147;28;93364;-74
2022/03/09 12:53:23;;;;;;;37.60;18.33;;;;;;;;;;4998994;28;92651;-74
2022/03/09 12:55:49;;;;;;;30.80;18.60;;;;;;;;;;4994824;28;94455;-75
2022/03/09 12:58:25;;;;;;;25.63;19.73;;;;;;;;;;4989681;28;95520;-75
2022/03/09 13:01:04;;;;;;;28.23;19.17;;;;;;;;;;4991485;28;92463;-74
2022/03/09 13:03:30;;;;;;;33.73;19.57;;;;;;;;;;4991909;28;93356;-75
2022/03/09 13:05:57;;;;;;;33.22;20.33;;;;;;;;;;4990831;28;93821;-74
2022/03/09 13:08:32;;;;;;;31.88;20.88;;;;;;;;;;4991858;28;92874;-74
2022/03/09 13:10:59;;;;;;;32.67;20.98;;;;;;;;;;4991691;28;93452;-75
2022/03/09 13:13:32;;;;;;;31.70;20.73;;;;;;;;;;4992095;28;94164;-75
2022/03/09 13:16:02;;;;;;;33.70;20.58;;;;;;;;;;4994830;28;92165;-74
2022/03/09 13:18:30;;;;;;;31.10;19.58;;;;;;;;;;4991736;28;94464;-75
2022/03/09 13:20:59;;;;;;;32.55;20.35;;;;;;;;;;4991614;28;92450;-74
2022/03/09 13:23:27;;;;;;;27.50;19.15;;;;;;;;;;4990496;28;95244;-74
2022/03/09 13:25:53;;;;;;;28.35;19.67;;;;;;;;;;4991028;28;93534;-74
2022/03/09 13:28:26;;;;;;;34.63;20.70;;;;;;;;;;4991259;28;92581;-75
2022/03/09 13:30:52;;;;;;;27.92;19.83;;;;;;;;;;4990644;28;92498;-74
2022/03/09 13:33:21;;;;;;;31.58;20.30;;;;;;;;;;4994036;28;94331;-74
2022/03/09 13:35:48;;;;;;;31.30;20.48;;;;;;;;;;4993301;28;92602;-74
2022/03/09 13:38:21;;;;;;;33.75;20.25;;;;;;;;;;4997980;28;93293;-74
2022/03/09 13:40:47;;;;;;;33.03;20.05;;;;;;;;;;4995459;28;91724;-73
2022/03/09 13:43:13;;;;;;;30.70;20.05;;;;;;;;;;4994941;28;92655;-74
2022/03/09 13:45:41;;;;;;;29.98;20.27;;;;;;;;;;4994967;28;93442;-74
2022/03/09 13:48:18;;;;;;;36.00;20.20;;;;;;;;;;4992789;28;94803;-74
2022/03/09 13:50:50;;;;;;;29.48;19.55;;;;;;;;;;4995150;28;96711;-74
2022/03/09 13:53:18;;;;;;;47.78;20.83;;;;;;;;;;4994888;28;94183;-74
2022/03/09 13:55:52;;;;;;;33.85;21.13;;;;;;;;;;5026447;28;92520;-73
2022/03/09 13:58:20;;;;;;;33.33;19.73;;;;;;;;;;4997886;28;94240;-73
2022/03/09 14:00:46;;;;;;;31.67;19.92;;;;;;;;;;4992338;28;92547;-74
2022/03/09 14:03:13;;;;;;;32.53;20.13;;;;;;;;;;5006275;28;93133;-76
2022/03/09 14:05:45;;;;;;;41.25;19.83;;;;;;;;;;5013440;28;93056;-75
2022/03/09 14:08:28;;;;;;;30.27;19.80;;;;;;;;;;5004147;28;94089;-75
2022/03/09 14:11:05;;;;;;;33.45;19.48;;;;;;;;;;5000967;28;93257;-75
2022/03/09 14:13:33;;;;;;;34.97;19.80;;;;;;;;;;4992530;28;95788;-74
2022/03/09 14:15:59;;;;;;;36.13;20.33;;;;;;;;;;4996586;28;92568;-76
2022/03/09 14:18:30;;;;;;;37.22;20.50;;;;;;;;;;4992868;28;94408;-76
2022/03/09 14:20:56;;;;;;;35.08;20.67;;;;;;;;;;5006285;28;93278;-76
2022/03/09 14:23:27;;;;;;;37.80;21.08;;;;;;;;;;4998883;28;94265;-75
2022/03/09 14:25:54;;;;;;;34.20;22.17;;;;;;;;;;4993284;28;93286;-74
2022/03/09 14:28:20;;;;;;;38.78;20.67;;;;;;;;;;4993936;28;92485;-75